createdAt,value
2018-07-02T00:00:13.453Z,56.34
2018-07-02T00:02:42.356Z,56.52
2018-07-02T00:05:11.012Z,56.65
2018-07-02T00:07:39.905Z,56.50
2018-07-02T00:10:08.784Z,56.69
2018-07-02T00:12:37.657Z,57.13
2018-07-02T00:15:06.433Z,56.93
2018-07-02T00:17:34.728Z,57.49
2018-07-02T00:20:03.690Z,57.60
2018-07-02T00:22:32.281Z,57.86
2018-07-02T00:25:01.122Z,58.56
2018-07-02T00:27:29.753Z,58.30
2018-07-02T00:29:58.691Z,58.82
2018-07-02T00:32:27.568Z,58.98
2018-07-02T00:34:56.239Z,59.39
2018-07-02T00:37:24.769Z,59.09
2018-07-02T00:39:53.864Z,59.61
2018-07-02T00:42:22.616Z,58.92
2018-07-02T00:44:51.777Z,59.48
2018-07-02T00:47:20.341Z,59.91
2018-07-02T00:49:50.053Z,59.96
2018-07-02T00:52:18.693Z,59.55
2018-07-02T00:54:47.345Z,60.13
2018-07-02T00:57:15.972Z,60.58
2018-07-02T00:59:44.385Z,60.88
2018-07-02T01:02:13.016Z,60.44
2018-07-02T01:04:41.819Z,60.90
2018-07-02T01:07:10.327Z,61.11
2018-07-02T01:09:38.976Z,61.35
2018-07-02T01:12:07.866Z,61.48
2018-07-02T01:14:36.821Z,61.23
2018-07-02T01:17:05.761Z,61.48
2018-07-02T01:19:34.939Z,62.16
2018-07-02T01:22:03.948Z,62.09
2018-07-02T01:24:32.872Z,62.05
2018-07-02T01:27:01.799Z,62.49
2018-07-02T01:29:30.707Z,62.06
2018-07-02T01:31:59.593Z,63.17
2018-07-02T01:34:28.229Z,63.52
2018-07-02T01:36:56.833Z,63.00
2018-07-02T01:39:25.704Z,62.95
2018-07-02T01:41:54.356Z,63.32
2018-07-02T01:44:23.043Z,62.98
2018-07-02T01:46:51.889Z,63.27
2018-07-02T01:49:20.420Z,63.28
2018-07-02T01:51:50.366Z,63.44
2018-07-02T01:54:18.993Z,63.42
2018-07-02T01:56:47.787Z,63.53
2018-07-02T01:59:17.003Z,64.25
2018-07-02T02:01:45.956Z,64.74
2018-07-02T02:04:14.564Z,64.14
2018-07-02T02:06:43.233Z,64.46
2018-07-02T02:09:12.624Z,64.31
2018-07-02T02:11:41.288Z,64.68
2018-07-02T02:14:09.916Z,65.05
2018-07-02T02:16:38.570Z,64.74
2018-07-02T02:19:07.485Z,65.00
2018-07-02T02:21:36.374Z,65.33
2018-07-02T02:24:05.211Z,65.80
2018-07-02T02:26:33.521Z,65.59
2018-07-02T02:29:01.808Z,65.27
2018-07-02T02:31:30.493Z,65.45
2018-07-02T02:33:59.412Z,65.62
2018-07-02T02:36:28.078Z,65.58
2018-07-02T02:38:57.228Z,65.83
2018-07-02T02:41:25.930Z,66.21
2018-07-02T02:43:54.529Z,66.41
2018-07-02T02:46:22.825Z,66.09
2018-07-02T02:48:51.153Z,66.37
2018-07-02T02:51:19.885Z,66.68
2018-07-02T02:53:48.517Z,67.11
2018-07-02T02:56:17.389Z,66.94
2018-07-02T02:58:45.709Z,66.53
2018-07-02T03:01:14.351Z,66.89
2018-07-02T03:03:42.745Z,67.42
2018-07-02T03:06:11.392Z,67.28
2018-07-02T03:08:39.681Z,67.53
2018-07-02T03:11:08.561Z,68.11
2018-07-02T03:13:36.932Z,67.66
2018-07-02T03:16:06.391Z,67.42
2018-07-02T03:18:35.127Z,67.82
2018-07-02T03:21:03.706Z,67.88
2018-07-02T03:23:32.340Z,68.00
2018-07-02T03:26:00.746Z,67.09
2018-07-02T03:28:29.393Z,67.81
2018-07-02T03:30:58.336Z,68.13
2018-07-02T03:33:27.017Z,68.05
2018-07-02T03:35:56.560Z,68.63
2018-07-02T03:38:25.453Z,67.90
2018-07-02T03:40:54.484Z,68.23
2018-07-02T03:43:22.800Z,68.25
2018-07-02T03:45:51.689Z,68.41
2018-07-02T03:48:20.005Z,68.29
2018-07-02T04:10:23.381Z,68.20
2018-07-02T04:12:52.399Z,68.28
2018-07-02T04:15:20.733Z,68.33
2018-07-02T04:17:50.422Z,68.53
2018-07-02T04:20:19.201Z,68.29
2018-07-02T04:22:48.105Z,68.06
2018-07-02T04:25:17.081Z,68.28
2018-07-02T04:27:46.009Z,67.92
2018-07-02T04:30:14.957Z,67.20
2018-07-02T04:32:43.755Z,67.28
2018-07-02T04:35:12.380Z,67.51
2018-07-02T04:37:41.108Z,67.70
2018-07-02T04:40:10.041Z,67.58
2018-07-02T04:42:38.678Z,67.40
2018-07-02T04:45:07.771Z,67.26
2018-07-02T04:47:36.360Z,67.02
2018-07-02T04:50:04.944Z,66.96
2018-07-02T04:52:33.573Z,67.57
2018-07-02T04:55:02.596Z,67.89
2018-07-02T04:57:31.312Z,67.01
2018-07-02T05:00:00.221Z,67.23
2018-07-02T05:02:29.532Z,67.11
2018-07-02T05:04:58.252Z,66.49
2018-07-02T05:07:26.677Z,66.52
2018-07-02T05:09:55.417Z,66.50
2018-07-02T05:14:53.090Z,65.24
2018-07-02T05:17:21.529Z,65.41
2018-07-02T05:19:50.636Z,65.66
2018-07-02T05:22:19.260Z,65.08
2018-07-02T05:24:48.180Z,65.11
2018-07-02T05:27:16.278Z,64.59
2018-07-02T05:29:44.960Z,63.87
2018-07-02T05:32:13.549Z,63.96
2018-07-02T05:34:42.270Z,63.54
2018-07-02T05:37:10.893Z,63.42
2018-07-02T05:39:39.336Z,63.61
2018-07-02T05:42:07.765Z,61.95
2018-07-02T05:44:36.164Z,61.25
2018-07-02T05:47:04.772Z,61.48
2018-07-02T05:49:33.341Z,61.33
2018-07-02T05:52:01.440Z,60.75
2018-07-02T05:54:29.853Z,60.12
2018-07-02T05:56:58.625Z,59.20
2018-07-02T05:59:26.996Z,60.38
2018-07-02T06:01:55.273Z,59.87
2018-07-02T06:04:24.202Z,58.93
2018-07-02T06:06:52.654Z,57.97
2018-07-02T06:09:21.014Z,57.20
2018-07-02T06:11:50.588Z,57.35
2018-07-02T06:14:18.921Z,57.97
2018-07-02T06:16:47.556Z,57.21
2018-07-02T06:19:15.984Z,57.27
2018-07-02T06:21:44.457Z,57.09
2018-07-02T06:24:13.974Z,56.42
2018-07-02T06:26:42.481Z,57.58
2018-07-02T06:29:10.920Z,56.76
2018-07-02T06:31:39.423Z,55.32
2018-07-02T06:34:07.968Z,56.24
2018-07-02T06:36:36.441Z,54.87
2018-07-02T06:39:08.474Z,54.34
2018-07-02T06:41:37.138Z,54.92
2018-07-02T06:44:05.320Z,54.91
2018-07-02T06:46:33.576Z,54.96
2018-07-02T06:49:02.415Z,54.38
2018-07-02T06:51:31.593Z,52.69
2018-07-02T06:54:00.525Z,52.23
2018-07-02T06:56:28.952Z,52.38
2018-07-02T06:58:57.506Z,52.40
2018-07-02T07:01:26.413Z,52.29
2018-07-02T07:03:54.855Z,52.79
2018-07-02T07:06:23.781Z,51.98
2018-07-02T07:08:52.421Z,51.22
2018-07-02T07:11:20.848Z,51.63
2018-07-02T07:13:50.934Z,51.90
2018-07-02T07:16:19.809Z,51.81
2018-07-02T07:18:48.304Z,50.79
2018-07-02T07:21:16.412Z,50.99
2018-07-02T07:23:44.848Z,49.72
2018-07-02T07:26:13.300Z,50.43
2018-07-02T07:28:41.407Z,49.74
2018-07-02T07:31:10.079Z,49.08
2018-07-02T07:33:38.664Z,48.88
2018-07-02T07:36:07.109Z,50.23
2018-07-02T07:38:35.714Z,49.44
2018-07-02T07:41:04.380Z,49.43
2018-07-02T07:43:32.882Z,48.97
2018-07-02T07:46:01.453Z,49.34
2018-07-02T07:48:29.749Z,47.84
2018-07-02T07:50:58.741Z,48.12
2018-07-02T07:53:26.861Z,47.60
2018-07-02T07:55:55.649Z,47.86
2018-07-02T07:58:23.916Z,47.58
2018-07-02T08:00:52.813Z,47.56
2018-07-02T08:03:20.900Z,47.26
2018-07-02T08:25:19.182Z,46.67
2018-07-02T08:27:47.856Z,44.87
2018-07-02T08:30:16.586Z,43.80
2018-07-02T08:32:44.695Z,43.90
2018-07-02T08:35:13.528Z,42.82
2018-07-02T08:37:41.973Z,41.78
2018-07-02T08:40:10.629Z,42.97
2018-07-02T08:42:39.113Z,42.58
2018-07-02T08:45:08.465Z,42.91
2018-07-02T08:47:36.556Z,43.48
2018-07-02T08:50:05.305Z,42.31
2018-07-02T08:52:33.964Z,42.65
2018-07-02T08:55:02.944Z,42.11
2018-07-02T08:57:31.416Z,42.66
2018-07-02T09:00:00.153Z,42.33
2018-07-02T09:02:28.792Z,41.64
2018-07-02T09:04:57.437Z,41.86
2018-07-02T09:07:25.952Z,41.88
2018-07-02T09:09:54.541Z,41.50
2018-07-02T09:12:22.629Z,41.17
2018-07-02T09:14:51.422Z,40.34
2018-07-02T09:17:19.825Z,41.01
2018-07-02T09:19:49.157Z,41.48
2018-07-02T09:22:17.720Z,40.71
2018-07-02T09:24:45.849Z,38.90
2018-07-02T09:27:14.489Z,38.37
2018-07-02T09:29:42.604Z,39.40
2018-07-02T09:32:11.084Z,37.83
2018-07-02T09:34:40.025Z,38.69
2018-07-02T09:37:08.913Z,37.96
2018-07-02T09:39:37.025Z,36.11
2018-07-02T09:42:05.558Z,36.77
2018-07-02T09:44:33.661Z,34.84
2018-07-02T09:47:02.393Z,36.38
2018-07-02T09:49:30.737Z,35.43
2018-07-02T09:51:59.047Z,34.56
2018-07-02T09:54:27.429Z,33.71
2018-07-02T09:56:55.830Z,33.43
2018-07-02T09:59:25.312Z,33.32
2018-07-02T10:01:53.881Z,33.57
2018-07-02T10:04:22.344Z,34.00
2018-07-02T10:06:50.896Z,31.49
2018-07-02T10:09:18.984Z,31.95
2018-07-02T10:11:47.644Z,31.00
2018-07-02T10:14:16.084Z,29.12
2018-07-02T10:16:44.464Z,30.14
2018-07-02T10:19:12.572Z,31.11
2018-07-02T10:21:40.669Z,28.54
2018-07-02T10:24:09.137Z,28.94
2018-07-02T10:26:37.581Z,30.16
2018-07-02T10:29:06.094Z,31.30
2018-07-02T10:31:34.593Z,29.61
2018-07-02T10:34:03.153Z,27.53
2018-07-02T10:36:31.600Z,28.95
2018-07-02T10:39:00.031Z,28.76
2018-07-02T10:41:28.953Z,30.79
2018-07-02T10:43:57.370Z,30.28
2018-07-02T10:46:25.941Z,30.42
2018-07-02T10:48:54.752Z,30.12
2018-07-02T10:51:23.185Z,30.71
2018-07-02T10:53:51.626Z,28.58
2018-07-02T10:56:19.965Z,28.90
2018-07-02T10:58:48.844Z,29.37
2018-07-02T11:01:16.992Z,29.23
2018-07-02T11:03:45.280Z,29.64
2018-07-02T11:06:13.413Z,28.82
2018-07-02T11:08:41.625Z,30.09
2018-07-02T11:11:10.113Z,30.27
2018-07-02T11:13:38.790Z,30.85
2018-07-02T11:16:07.264Z,30.20
2018-07-02T11:18:35.704Z,28.84
2018-07-02T11:21:04.585Z,28.74
2018-07-02T11:23:33.099Z,29.05
2018-07-02T11:26:01.846Z,29.49
2018-07-02T11:28:30.273Z,28.08
2018-07-02T11:30:59.187Z,27.88
2018-07-02T11:33:27.608Z,29.65
2018-07-02T11:35:56.319Z,28.18
2018-07-02T11:38:24.744Z,28.52
2018-07-02T11:40:53.396Z,27.82
2018-07-02T11:43:22.125Z,27.63
2018-07-02T11:45:51.441Z,27.16
2018-07-02T11:48:19.881Z,27.00
2018-07-02T11:50:48.168Z,26.18
2018-07-02T11:53:16.271Z,27.00
2018-07-02T11:55:44.799Z,25.91
2018-07-02T11:58:13.241Z,25.93
2018-07-02T12:00:41.333Z,26.52
2018-07-02T12:03:09.497Z,26.73
2018-07-02T12:05:38.319Z,26.77
2018-07-02T12:08:07.314Z,25.62
2018-07-02T12:10:36.021Z,25.83
2018-07-02T12:13:04.364Z,25.89
2018-07-02T12:15:32.780Z,26.00
2018-07-02T12:18:00.889Z,26.16
2018-07-02T12:20:29.323Z,26.52
2018-07-02T12:22:57.774Z,26.25
2018-07-02T12:25:26.215Z,26.27
2018-07-02T12:27:54.924Z,26.17
2018-07-02T12:30:23.022Z,26.51
2018-07-02T12:32:51.340Z,26.54
2018-07-02T12:35:20.248Z,26.12
2018-07-02T12:37:48.704Z,26.55
2018-07-02T12:40:16.804Z,26.24
2018-07-02T12:42:45.243Z,27.26
2018-07-02T12:45:13.316Z,25.81
2018-07-02T12:47:41.437Z,26.01
2018-07-02T12:50:10.177Z,25.70
2018-07-02T12:52:38.618Z,26.18
2018-07-02T12:55:07.745Z,27.13
2018-07-02T12:57:36.397Z,27.42
2018-07-02T13:00:04.872Z,26.21
2018-07-02T13:02:33.309Z,26.79
2018-07-02T13:05:01.422Z,25.67
2018-07-02T13:07:29.526Z,25.46
2018-07-02T13:09:57.944Z,26.05
2018-07-02T13:12:26.376Z,26.90
2018-07-02T13:14:54.894Z,25.87
2018-07-02T13:17:23.189Z,27.39
2018-07-02T13:19:51.724Z,25.66
2018-07-02T13:22:19.923Z,25.85
2018-07-02T13:24:48.484Z,26.87
2018-07-02T13:27:16.601Z,26.27
2018-07-02T13:29:45.053Z,27.13
2018-07-02T13:32:13.522Z,26.70
2018-07-02T13:34:42.608Z,26.69
2018-07-02T13:37:11.476Z,26.58
2018-07-02T13:39:39.578Z,27.87
2018-07-02T13:42:07.683Z,28.35
2018-07-02T13:44:36.401Z,26.95
2018-07-02T13:47:05.401Z,26.98
2018-07-02T13:49:33.932Z,28.02
2018-07-02T13:52:02.708Z,27.16
2018-07-02T13:54:31.432Z,27.61
2018-07-02T13:56:59.537Z,27.83
2018-07-02T13:59:27.877Z,27.27
2018-07-02T14:01:56.809Z,28.33
2018-07-02T14:04:25.644Z,27.69
2018-07-02T14:06:54.924Z,27.51
2018-07-02T14:09:23.472Z,26.47
2018-07-02T14:11:51.944Z,25.61
2018-07-02T14:14:20.198Z,26.72
2018-07-02T14:16:48.783Z,25.96
2018-07-02T14:19:17.468Z,26.86
2018-07-02T14:21:46.032Z,26.09
2018-07-02T14:24:14.677Z,27.07
2018-07-02T14:26:43.352Z,26.51
2018-07-02T14:29:11.465Z,26.17
2018-07-02T14:31:40.191Z,26.68
2018-07-02T14:34:08.925Z,26.44
2018-07-02T14:36:37.581Z,27.39
2018-07-02T14:39:14.326Z,27.25
2018-07-02T14:41:43.279Z,27.98
2018-07-02T14:44:11.549Z,27.21
2018-07-02T14:46:40.031Z,26.66
2018-07-02T14:49:08.820Z,27.81
2018-07-02T14:51:37.292Z,27.02
2018-07-02T14:54:05.513Z,26.88
2018-07-02T14:56:34.640Z,27.66
2018-07-02T14:59:03.889Z,27.14
2018-07-02T15:01:32.494Z,27.15
2018-07-02T15:04:01.293Z,27.29
2018-07-02T15:06:29.728Z,27.55
2018-07-02T15:08:58.125Z,26.43
2018-07-02T15:11:26.213Z,26.60
2018-07-02T15:13:54.827Z,26.30
2018-07-02T15:16:23.184Z,25.70
2018-07-02T15:18:52.160Z,26.75
2018-07-02T15:21:20.849Z,27.19
2018-07-02T15:23:49.401Z,27.58
2018-07-02T15:26:17.821Z,26.63
2018-07-02T15:28:46.574Z,27.65
2018-07-02T15:31:15.089Z,28.67
2018-07-02T15:33:44.135Z,27.76
2018-07-02T15:36:12.713Z,28.88
2018-07-02T15:38:41.820Z,28.67
2018-07-02T15:41:09.974Z,28.50
2018-07-02T15:43:38.368Z,27.68
2018-07-02T15:46:06.784Z,28.77
2018-07-02T15:48:35.393Z,27.60
2018-07-02T15:51:03.513Z,27.79
2018-07-02T15:53:31.613Z,28.24
2018-07-02T15:55:59.762Z,28.15
2018-07-02T15:58:28.228Z,27.91
2018-07-02T16:00:56.838Z,28.33
2018-07-02T16:03:25.472Z,28.08
2018-07-02T16:05:53.991Z,28.49
2018-07-02T16:08:22.775Z,27.44
2018-07-02T16:10:52.348Z,27.63
2018-07-02T16:13:20.785Z,27.60
2018-07-02T16:15:48.884Z,28.61
2018-07-02T16:18:17.336Z,28.29
2018-07-02T16:20:45.872Z,29.15
2018-07-02T16:23:14.692Z,28.46
2018-07-02T16:25:43.598Z,28.07
2018-07-02T16:28:12.025Z,28.76
2018-07-02T16:30:41.161Z,29.36
2018-07-02T16:33:09.772Z,28.93
2018-07-02T16:35:38.541Z,29.14
2018-07-02T16:38:07.025Z,29.94
2018-07-02T16:40:35.416Z,29.68
2018-07-02T16:43:03.900Z,29.05
2018-07-02T16:45:32.341Z,29.93
2018-07-02T16:48:00.795Z,30.57
2018-07-02T16:50:29.277Z,30.05
2018-07-02T16:52:57.711Z,29.30
2018-07-02T16:55:25.825Z,29.46
2018-07-02T16:57:53.989Z,29.21
2018-07-02T17:00:22.697Z,29.93
2018-07-02T17:02:51.801Z,30.50
2018-07-02T17:05:20.248Z,29.96
2018-07-02T17:07:48.748Z,30.39
2018-07-02T17:10:16.833Z,30.70
2018-07-02T17:12:44.925Z,30.53
2018-07-02T17:15:13.026Z,30.59
2018-07-02T17:17:41.161Z,30.25
2018-07-02T17:20:09.988Z,30.59
2018-07-02T17:22:38.799Z,29.85
2018-07-02T17:25:08.229Z,30.40
2018-07-02T17:27:37.193Z,30.35
2018-07-02T17:30:06.136Z,30.12
2018-07-02T17:32:34.857Z,30.53
2018-07-02T17:35:03.449Z,31.23
2018-07-02T17:37:32.344Z,31.74
2018-07-02T17:40:01.086Z,31.67
2018-07-02T17:42:29.900Z,31.32
2018-07-02T17:44:58.632Z,31.48
2018-07-02T17:47:27.065Z,31.53
2018-07-02T17:49:55.777Z,31.63
2018-07-02T17:52:24.217Z,31.33
2018-07-02T17:54:53.121Z,31.07
2018-07-02T17:57:21.794Z,30.43
2018-07-02T17:59:50.216Z,31.33
2018-07-02T18:02:19.312Z,30.86
2018-07-02T18:04:47.593Z,31.49
2018-07-02T18:07:16.057Z,32.27
2018-07-02T18:09:44.505Z,33.12
2018-07-02T18:12:12.660Z,33.51
2018-07-02T18:14:41.097Z,33.01
2018-07-02T18:17:09.170Z,33.81
2018-07-02T18:19:37.582Z,33.21
2018-07-02T18:22:06.591Z,32.82
2018-07-02T18:24:35.014Z,32.76
2018-07-02T18:27:03.405Z,32.61
2018-07-02T18:29:32.041Z,33.11
2018-07-02T18:32:00.150Z,32.13
2018-07-02T18:34:28.968Z,33.49
2018-07-02T18:36:57.420Z,33.36
2018-07-02T18:42:08.024Z,34.30
2018-07-02T18:44:36.444Z,35.25
2018-07-02T18:47:05.250Z,34.51
2018-07-02T18:49:34.708Z,35.17
2018-07-02T18:52:03.158Z,35.57
2018-07-02T18:54:32.249Z,36.21
2018-07-02T18:57:00.700Z,36.16
2018-07-02T18:59:29.206Z,36.05
2018-07-02T19:01:58.361Z,36.41
2018-07-02T19:04:26.748Z,35.95
2018-07-02T19:06:55.104Z,38.44
2018-07-02T19:09:23.544Z,39.31
2018-07-02T19:11:52.546Z,40.58
2018-07-02T19:14:20.796Z,41.98
2018-07-02T19:16:49.328Z,42.89
2018-07-02T19:19:18.172Z,42.97
2018-07-02T19:21:46.297Z,44.69
2018-07-02T19:24:14.741Z,44.66
2018-07-02T19:26:42.953Z,45.22
2018-07-02T19:29:11.394Z,45.60
2018-07-02T19:31:40.112Z,45.71
2018-07-02T19:34:08.770Z,46.05
2018-07-02T19:36:37.149Z,46.10
2018-07-02T19:39:11.880Z,46.52
2018-07-02T19:41:40.606Z,46.78
2018-07-02T19:44:09.661Z,46.51
2018-07-02T19:46:37.952Z,47.09
2018-07-02T19:49:06.497Z,47.32
2018-07-02T19:51:35.206Z,47.68
2018-07-02T19:54:04.109Z,47.92
2018-07-02T19:56:32.575Z,47.76
2018-07-02T19:59:01.145Z,47.43
2018-07-02T20:01:29.582Z,47.04
2018-07-02T20:03:58.626Z,48.00
2018-07-02T20:06:27.397Z,47.82
2018-07-02T20:08:56.470Z,48.30
2018-07-02T20:11:25.237Z,47.88
2018-07-02T20:13:53.669Z,48.32
2018-07-02T20:16:22.295Z,48.45
2018-07-02T20:18:52.756Z,49.20
2018-07-02T20:21:21.391Z,48.63
2018-07-02T20:23:49.759Z,49.75
2018-07-02T20:26:18.429Z,49.81
2018-07-02T20:28:46.869Z,50.23
2018-07-02T20:31:15.745Z,49.65
2018-07-02T20:33:43.989Z,49.95
2018-07-02T20:36:12.427Z,49.95
2018-07-02T20:38:40.885Z,50.24
2018-07-02T20:41:09.233Z,50.48
2018-07-02T20:43:37.593Z,49.67
2018-07-02T20:46:06.271Z,49.85
2018-07-02T20:48:34.691Z,50.89
2018-07-02T20:51:03.619Z,50.92
2018-07-02T20:53:32.533Z,49.94
2018-07-02T20:56:01.313Z,50.77
2018-07-02T20:58:29.997Z,50.66
2018-07-02T21:00:58.601Z,50.64
2018-07-02T21:03:27.049Z,51.15
2018-07-02T21:05:55.718Z,51.59
2018-07-02T21:08:24.730Z,51.33
2018-07-02T21:10:53.722Z,51.39
2018-07-02T21:13:22.333Z,50.76
2018-07-02T21:15:50.724Z,51.08
2018-07-02T21:18:19.514Z,52.02
2018-07-02T21:20:48.229Z,51.96
2018-07-02T21:23:16.685Z,51.36
2018-07-02T21:25:45.485Z,52.68
2018-07-02T21:28:13.821Z,52.46
2018-07-02T21:30:42.465Z,53.16
2018-07-02T21:33:11.191Z,53.69
2018-07-02T21:35:39.807Z,53.96
2018-07-02T21:38:08.441Z,55.21
2018-07-02T21:40:37.060Z,54.85
2018-07-02T21:43:05.705Z,55.88
2018-07-02T21:45:34.376Z,56.14
2018-07-02T21:48:03.077Z,56.45
2018-07-02T21:50:31.961Z,56.95
2018-07-02T21:53:00.673Z,56.89
2018-07-02T21:55:28.769Z,56.79
2018-07-02T21:57:57.753Z,56.59
2018-07-02T22:00:26.140Z,57.02
2018-07-02T22:02:54.631Z,57.42
2018-07-02T22:05:23.406Z,58.07
2018-07-02T22:07:52.553Z,57.79
2018-07-02T22:10:21.760Z,58.36
2018-07-02T22:12:50.493Z,57.88
2018-07-02T22:15:18.821Z,58.33
2018-07-02T22:17:47.444Z,58.69
2018-07-02T22:20:16.435Z,58.96
2018-07-02T22:22:44.751Z,58.84
2018-07-02T22:25:15.072Z,59.20
2018-07-02T22:27:43.509Z,59.12
2018-07-02T22:30:12.109Z,59.26
2018-07-02T22:32:40.329Z,60.07
2018-07-02T22:35:08.879Z,59.29
2018-07-02T22:37:37.183Z,59.30
2018-07-02T22:40:05.909Z,60.14
2018-07-02T22:42:34.412Z,59.81
2018-07-02T22:45:02.841Z,60.13
2018-07-02T22:47:31.240Z,60.93
2018-07-02T22:49:59.848Z,60.77
2018-07-02T22:52:28.696Z,61.13
2018-07-02T22:54:56.797Z,61.19
2018-07-02T22:57:25.209Z,61.45
2018-07-02T22:59:54.136Z,61.76
2018-07-02T23:02:22.628Z,61.28
2018-07-02T23:04:50.748Z,61.52
2018-07-02T23:07:19.177Z,62.28
2018-07-02T23:09:47.335Z,61.95
2018-07-02T23:12:15.781Z,62.80
2018-07-02T23:14:44.518Z,62.38
2018-07-02T23:17:12.940Z,63.03
2018-07-02T23:19:41.401Z,63.08
2018-07-02T23:22:09.964Z,63.91
2018-07-02T23:24:38.869Z,63.76
2018-07-02T23:27:07.258Z,64.26
2018-07-02T23:29:35.565Z,64.56
2018-07-02T23:32:03.949Z,64.53
2018-07-02T23:34:32.396Z,65.39
2018-07-02T23:37:01.209Z,65.43
2018-07-02T23:39:29.722Z,65.48
2018-07-02T23:41:57.828Z,65.91
2018-07-02T23:44:26.676Z,65.45
2018-07-02T23:46:55.587Z,66.34
2018-07-02T23:49:24.025Z,66.42
2018-07-02T23:51:53.105Z,65.93
2018-07-02T23:54:21.816Z,66.61
2018-07-02T23:56:50.236Z,66.17
2018-07-02T23:59:18.693Z,66.01
